Terminal Aerodrome Forecast
Issued by NWS Grand Junction, CO

Home | Current Version | Previous Version | Text Only | Print | Product List | Glossary On
Versions: 1 2 3 4 5 6 7 8 9 10 11 12 13 14 15 16 17 18
000
FTUS45 KGJT 260103 AAB
TAFGJT
TAF AMD
KGJT 260103Z 2601/2624 32007KT P6SM OVC090
      TEMPO 2601/2603 22012KT P6SM -RA BKN060 OVC080
     FM260300 30006KT P6SM VCSH OVC070
     FM260400 01005KT P6SM VCSH OVC070
     FM261100 34005KT P6SM VCSH OVC050
     FM261300 36005KT P6SM BKN050
     FM261700 VRB04KT P6SM SCT070=

USA.gov is the U.S. government's official web portal to all federal, state and local government web resources and services.